sensor_id;sensor_type;location;lat;lon;timestamp;temperature;humidity
18805;DHT22;9530;48.930;9.526;2022-08-11T00:01:05;18.30;90.90
18805;DHT22;9530;48.930;9.526;2022-08-11T00:03:34;18.30;91.60
18805;DHT22;9530;48.930;9.526;2022-08-11T00:06:03;18.30;91.60
18805;DHT22;9530;48.930;9.526;2022-08-11T00:08:31;18.30;91.70
18805;DHT22;9530;48.930;9.526;2022-08-11T00:11:01;18.30;90.90
18805;DHT22;9530;48.930;9.526;2022-08-11T00:13:33;18.30;91.20
18805;DHT22;9530;48.930;9.526;2022-08-11T00:16:01;18.30;91.60
18805;DHT22;9530;48.930;9.526;2022-08-11T00:18:29;18.40;91.50
18805;DHT22;9530;48.930;9.526;2022-08-11T00:20:58;18.40;91.30
18805;DHT22;9530;48.930;9.526;2022-08-11T00:23:26;18.50;91.20
18805;DHT22;9530;48.930;9.526;2022-08-11T00:25:53;18.40;91.80
18805;DHT22;9530;48.930;9.526;2022-08-11T00:28:25;18.40;92.10
18805;DHT22;9530;48.930;9.526;2022-08-11T00:30:53;18.30;92.70
18805;DHT22;9530;48.930;9.526;2022-08-11T00:33:22;18.20;93.00
18805;DHT22;9530;48.930;9.526;2022-08-11T00:35:50;18.20;92.00
18805;DHT22;9530;48.930;9.526;2022-08-11T00:38:25;18.20;91.90
18805;DHT22;9530;48.930;9.526;2022-08-11T00:41:00;18.20;93.70
18805;DHT22;9530;48.930;9.526;2022-08-11T00:43:43;18.20;92.80
18805;DHT22;9530;48.930;9.526;2022-08-11T00:46:21;18.20;93.50
18805;DHT22;9530;48.930;9.526;2022-08-11T00:51:40;17.90;93.80
18805;DHT22;9530;48.930;9.526;2022-08-11T00:54:26;17.90;94.60
18805;DHT22;9530;48.930;9.526;2022-08-11T00:57:14;17.80;94.70
18805;DHT22;9530;48.930;9.526;2022-08-11T01:00:02;17.70;94.40
18805;DHT22;9530;48.930;9.526;2022-08-11T01:02:55;17.70;95.20
18805;DHT22;9530;48.930;9.526;2022-08-11T01:06:02;17.70;96.50
18805;DHT22;9530;48.930;9.526;2022-08-11T01:09:07;17.70;96.20
18805;DHT22;9530;48.930;9.526;2022-08-11T01:12:00;17.70;95.70
18805;DHT22;9530;48.930;9.526;2022-08-11T01:18:09;17.60;96.70
18805;DHT22;9530;48.930;9.526;2022-08-11T01:21:16;17.60;97.70
18805;DHT22;9530;48.930;9.526;2022-08-11T01:33:44;18.40;92.50
18805;DHT22;9530;48.930;9.526;2022-08-11T01:36:48;18.50;92.20
18805;DHT22;9530;48.930;9.526;2022-08-11T01:42:56;18.60;92.20
18805;DHT22;9530;48.930;9.526;2022-08-11T01:45:49;18.60;92.10
18805;DHT22;9530;48.930;9.526;2022-08-11T01:48:25;18.60;91.90
18805;DHT22;9530;48.930;9.526;2022-08-11T01:51:07;18.60;92.20
18805;DHT22;9530;48.930;9.526;2022-08-11T01:53:46;18.60;91.70
18805;DHT22;9530;48.930;9.526;2022-08-11T01:56:28;18.60;92.70
18805;DHT22;9530;48.930;9.526;2022-08-11T01:59:07;18.60;92.10
18805;DHT22;9530;48.930;9.526;2022-08-11T02:01:44;18.60;91.80
18805;DHT22;9530;48.930;9.526;2022-08-11T02:04:24;18.70;92.10
18805;DHT22;9530;48.930;9.526;2022-08-11T02:07:01;18.60;92.40
18805;DHT22;9530;48.930;9.526;2022-08-11T02:12:38;18.70;92.10
18805;DHT22;9530;48.930;9.526;2022-08-11T02:15:13;18.60;92.20
18805;DHT22;9530;48.930;9.526;2022-08-11T02:17:58;18.50;92.90
18805;DHT22;9530;48.930;9.526;2022-08-11T02:20:27;18.40;92.50
18805;DHT22;9530;48.930;9.526;2022-08-11T02:23:22;18.40;93.30
18805;DHT22;9530;48.930;9.526;2022-08-11T02:26:10;18.30;92.60
18805;DHT22;9530;48.930;9.526;2022-08-11T02:28:52;18.40;92.70
18805;DHT22;9530;48.930;9.526;2022-08-11T02:31:26;18.30;93.10
18805;DHT22;9530;48.930;9.526;2022-08-11T02:34:19;18.40;92.70
18805;DHT22;9530;48.930;9.526;2022-08-11T02:37:06;18.30;92.70
18805;DHT22;9530;48.930;9.526;2022-08-11T02:39:46;18.30;93.00
18805;DHT22;9530;48.930;9.526;2022-08-11T02:42:25;18.40;93.00
18805;DHT22;9530;48.930;9.526;2022-08-11T02:45:13;18.40;92.80
18805;DHT22;9530;48.930;9.526;2022-08-11T02:47:47;18.50;92.40
18805;DHT22;9530;48.930;9.526;2022-08-11T02:50:36;18.50;92.40
18805;DHT22;9530;48.930;9.526;2022-08-11T02:53:12;18.50;92.40
18805;DHT22;9530;48.930;9.526;2022-08-11T02:55:49;18.50;92.20
18805;DHT22;9530;48.930;9.526;2022-08-11T02:58:29;18.50;92.20
18805;DHT22;9530;48.930;9.526;2022-08-11T03:01:07;18.50;92.20
18805;DHT22;9530;48.930;9.526;2022-08-11T03:03:46;18.50;92.40
18805;DHT22;9530;48.930;9.526;2022-08-11T03:06:23;18.50;92.30
18805;DHT22;9530;48.930;9.526;2022-08-11T03:08:55;18.50;92.50
18805;DHT22;9530;48.930;9.526;2022-08-11T03:11:41;18.50;92.40
18805;DHT22;9530;48.930;9.526;2022-08-11T03:14:34;18.40;92.60
18805;DHT22;9530;48.930;9.526;2022-08-11T03:17:25;18.40;92.40
18805;DHT22;9530;48.930;9.526;2022-08-11T03:20:10;18.40;92.70
18805;DHT22;9530;48.930;9.526;2022-08-11T03:22:48;18.40;92.60
18805;DHT22;9530;48.930;9.526;2022-08-11T03:25:21;18.30;92.60
18805;DHT22;9530;48.930;9.526;2022-08-11T03:28:00;18.40;92.80
18805;DHT22;9530;48.930;9.526;2022-08-11T03:30:38;18.40;92.80
18805;DHT22;9530;48.930;9.526;2022-08-11T03:33:17;18.30;92.90
18805;DHT22;9530;48.930;9.526;2022-08-11T03:36:09;18.30;92.80
18805;DHT22;9530;48.930;9.526;2022-08-11T03:38:48;18.30;93.00
18805;DHT22;9530;48.930;9.526;2022-08-11T03:41:28;18.30;93.10
18805;DHT22;9530;48.930;9.526;2022-08-11T03:44:33;18.30;93.10
18805;DHT22;9530;48.930;9.526;2022-08-11T03:47:30;18.30;93.00
18805;DHT22;9530;48.930;9.526;2022-08-11T03:50:11;18.30;93.20
18805;DHT22;9530;48.930;9.526;2022-08-11T03:52:48;18.30;93.30
18805;DHT22;9530;48.930;9.526;2022-08-11T03:55:26;18.30;93.20
18805;DHT22;9530;48.930;9.526;2022-08-11T03:58:27;18.20;93.40
18805;DHT22;9530;48.930;9.526;2022-08-11T04:04:21;18.10;93.60
18805;DHT22;9530;48.930;9.526;2022-08-11T04:10:10;18.00;94.00
18805;DHT22;9530;48.930;9.526;2022-08-11T04:16:04;18.00;94.30
18805;DHT22;9530;48.930;9.526;2022-08-11T04:22:26;18.00;94.30
18805;DHT22;9530;48.930;9.526;2022-08-11T04:25:24;18.00;94.90
18805;DHT22;9530;48.930;9.526;2022-08-11T04:28:21;18.00;94.80
18805;DHT22;9530;48.930;9.526;2022-08-11T04:31:16;17.90;94.50
18805;DHT22;9530;48.930;9.526;2022-08-11T04:34:04;18.00;94.50
18805;DHT22;9530;48.930;9.526;2022-08-11T04:36:56;18.00;94.70
18805;DHT22;9530;48.930;9.526;2022-08-11T04:40:02;17.90;94.80
18805;DHT22;9530;48.930;9.526;2022-08-11T04:46:11;17.90;95.20
18805;DHT22;9530;48.930;9.526;2022-08-11T04:52:39;17.90;95.10
18805;DHT22;9530;48.930;9.526;2022-08-11T04:55:35;17.90;95.10
18805;DHT22;9530;48.930;9.526;2022-08-11T04:58:37;17.90;94.80
18805;DHT22;9530;48.930;9.526;2022-08-11T05:01:35;17.90;95.00
18805;DHT22;9530;48.930;9.526;2022-08-11T05:04:25;17.90;95.20
18805;DHT22;9530;48.930;9.526;2022-08-11T05:10:32;17.90;95.80
18805;DHT22;9530;48.930;9.526;2022-08-11T05:13:04;17.80;96.70
18805;DHT22;9530;48.930;9.526;2022-08-11T05:15:50;17.70;97.50
18805;DHT22;9530;48.930;9.526;2022-08-11T05:18:32;17.80;99.00
18805;DHT22;9530;48.930;9.526;2022-08-11T05:21:20;17.80;97.20
18805;DHT22;9530;48.930;9.526;2022-08-11T05:24:15;17.80;97.60
18805;DHT22;9530;48.930;9.526;2022-08-11T05:27:03;17.80;98.00
18805;DHT22;9530;48.930;9.526;2022-08-11T05:29:56;17.90;97.00
18805;DHT22;9530;48.930;9.526;2022-08-11T05:32:45;18.00;97.00
18805;DHT22;9530;48.930;9.526;2022-08-11T05:35:41;18.00;97.20
18805;DHT22;9530;48.930;9.526;2022-08-11T05:38:13;18.20;96.40
18805;DHT22;9530;48.930;9.526;2022-08-11T05:40:59;18.30;96.50
18805;DHT22;9530;48.930;9.526;2022-08-11T05:43:46;18.30;96.60
18805;DHT22;9530;48.930;9.526;2022-08-11T05:46:38;18.50;95.90
18805;DHT22;9530;48.930;9.526;2022-08-11T05:49:23;18.60;95.80
18805;DHT22;9530;48.930;9.526;2022-08-11T05:52:13;18.70;95.70
18805;DHT22;9530;48.930;9.526;2022-08-11T05:55:02;18.90;95.50
18805;DHT22;9530;48.930;9.526;2022-08-11T05:57:46;18.90;95.50
18805;DHT22;9530;48.930;9.526;2022-08-11T06:00:15;19.10;95.50
18805;DHT22;9530;48.930;9.526;2022-08-11T06:02:42;19.10;95.90
18805;DHT22;9530;48.930;9.526;2022-08-11T06:05:11;19.20;95.00
18805;DHT22;9530;48.930;9.526;2022-08-11T06:07:38;19.30;95.10
18805;DHT22;9530;48.930;9.526;2022-08-11T06:10:07;19.40;94.90
18805;DHT22;9530;48.930;9.526;2022-08-11T06:12:35;19.40;94.90
18805;DHT22;9530;48.930;9.526;2022-08-11T06:15:06;19.60;94.80
18805;DHT22;9530;48.930;9.526;2022-08-11T06:17:42;19.60;94.60
18805;DHT22;9530;48.930;9.526;2022-08-11T06:20:13;19.60;95.20
18805;DHT22;9530;48.930;9.526;2022-08-11T06:22:42;19.70;94.80
18805;DHT22;9530;48.930;9.526;2022-08-11T06:25:10;19.90;94.70
18805;DHT22;9530;48.930;9.526;2022-08-11T06:27:39;20.00;95.30
18805;DHT22;9530;48.930;9.526;2022-08-11T06:30:07;20.10;94.40
18805;DHT22;9530;48.930;9.526;2022-08-11T06:32:41;20.30;94.20
18805;DHT22;9530;48.930;9.526;2022-08-11T06:35:20;20.40;94.70
18805;DHT22;9530;48.930;9.526;2022-08-11T06:38:01;20.60;93.90
18805;DHT22;9530;48.930;9.526;2022-08-11T06:40:36;20.70;94.00
18805;DHT22;9530;48.930;9.526;2022-08-11T06:43:10;20.90;93.70
18805;DHT22;9530;48.930;9.526;2022-08-11T06:45:50;21.00;93.70
18805;DHT22;9530;48.930;9.526;2022-08-11T06:48:21;21.10;93.40
18805;DHT22;9530;48.930;9.526;2022-08-11T06:50:50;21.30;93.10
18805;DHT22;9530;48.930;9.526;2022-08-11T06:53:37;21.50;93.40
18805;DHT22;9530;48.930;9.526;2022-08-11T06:56:06;21.60;93.10
18805;DHT22;9530;48.930;9.526;2022-08-11T06:58:51;21.70;92.60
18805;DHT22;9530;48.930;9.526;2022-08-11T07:01:40;21.80;92.20
18805;DHT22;9530;48.930;9.526;2022-08-11T07:04:18;22.00;92.60
18805;DHT22;9530;48.930;9.526;2022-08-11T07:06:56;22.10;92.10
18805;DHT22;9530;48.930;9.526;2022-08-11T07:10:06;22.20;92.00
18805;DHT22;9530;48.930;9.526;2022-08-11T07:12:57;22.30;92.20
18805;DHT22;9530;48.930;9.526;2022-08-11T07:15:43;22.30;92.00
18805;DHT22;9530;48.930;9.526;2022-08-11T07:18:15;22.30;92.10
18805;DHT22;9530;48.930;9.526;2022-08-11T07:21:11;22.30;91.50
18805;DHT22;9530;48.930;9.526;2022-08-11T07:23:59;22.30;91.90
18805;DHT22;9530;48.930;9.526;2022-08-11T07:26:49;22.30;91.80
18805;DHT22;9530;48.930;9.526;2022-08-11T07:29:34;22.40;91.60
18805;DHT22;9530;48.930;9.526;2022-08-11T07:32:12;22.50;91.40
18805;DHT22;9530;48.930;9.526;2022-08-11T07:34:45;22.60;91.50
18805;DHT22;9530;48.930;9.526;2022-08-11T07:37:16;22.80;91.10
18805;DHT22;9530;48.930;9.526;2022-08-11T07:39:46;22.90;91.10
18805;DHT22;9530;48.930;9.526;2022-08-11T07:42:15;23.00;91.00
18805;DHT22;9530;48.930;9.526;2022-08-11T07:44:45;23.20;91.20
18805;DHT22;9530;48.930;9.526;2022-08-11T07:47:30;23.50;91.60
18805;DHT22;9530;48.930;9.526;2022-08-11T07:50:15;23.80;90.70
18805;DHT22;9530;48.930;9.526;2022-08-11T07:53:02;24.00;90.20
18805;DHT22;9530;48.930;9.526;2022-08-11T07:55:30;24.10;87.70
18805;DHT22;9530;48.930;9.526;2022-08-11T07:57:59;24.20;87.60
18805;DHT22;9530;48.930;9.526;2022-08-11T08:00:51;24.30;86.60
18805;DHT22;9530;48.930;9.526;2022-08-11T08:03:36;24.50;87.40
18805;DHT22;9530;48.930;9.526;2022-08-11T08:06:22;24.70;85.80
18805;DHT22;9530;48.930;9.526;2022-08-11T08:09:09;24.80;85.10
18805;DHT22;9530;48.930;9.526;2022-08-11T08:11:55;24.90;85.10
18805;DHT22;9530;48.930;9.526;2022-08-11T08:14:40;25.00;84.90
18805;DHT22;9530;48.930;9.526;2022-08-11T08:17:25;25.20;84.80
18805;DHT22;9530;48.930;9.526;2022-08-11T08:20:12;25.30;83.80
18805;DHT22;9530;48.930;9.526;2022-08-11T08:22:40;25.00;84.90
18805;DHT22;9530;48.930;9.526;2022-08-11T08:25:09;25.20;84.30
18805;DHT22;9530;48.930;9.526;2022-08-11T08:27:37;25.20;85.00
18805;DHT22;9530;48.930;9.526;2022-08-11T08:30:05;25.30;82.80
18805;DHT22;9530;48.930;9.526;2022-08-11T08:32:50;25.50;83.60
18805;DHT22;9530;48.930;9.526;2022-08-11T08:35:18;25.50;83.30
18805;DHT22;9530;48.930;9.526;2022-08-11T08:37:45;25.40;81.50
18805;DHT22;9530;48.930;9.526;2022-08-11T08:40:13;25.60;82.30
18805;DHT22;9530;48.930;9.526;2022-08-11T08:42:46;25.60;80.00
18805;DHT22;9530;48.930;9.526;2022-08-11T08:45:16;25.70;79.00
18805;DHT22;9530;48.930;9.526;2022-08-11T08:47:46;25.70;80.10
18805;DHT22;9530;48.930;9.526;2022-08-11T08:50:15;25.70;78.00
18805;DHT22;9530;48.930;9.526;2022-08-11T08:52:49;25.70;77.40
18805;DHT22;9530;48.930;9.526;2022-08-11T08:55:19;25.70;78.00
18805;DHT22;9530;48.930;9.526;2022-08-11T08:57:48;25.80;78.30
18805;DHT22;9530;48.930;9.526;2022-08-11T09:00:16;26.20;78.20
18805;DHT22;9530;48.930;9.526;2022-08-11T09:02:44;26.10;76.30
18805;DHT22;9530;48.930;9.526;2022-08-11T09:05:11;26.20;75.40
18805;DHT22;9530;48.930;9.526;2022-08-11T09:07:38;26.30;75.10
18805;DHT22;9530;48.930;9.526;2022-08-11T09:10:07;26.30;73.50
18805;DHT22;9530;48.930;9.526;2022-08-11T09:12:38;26.50;74.40
18805;DHT22;9530;48.930;9.526;2022-08-11T09:15:06;26.50;73.90
18805;DHT22;9530;48.930;9.526;2022-08-11T09:17:38;26.50;73.40
18805;DHT22;9530;48.930;9.526;2022-08-11T09:20:08;26.20;73.90
18805;DHT22;9530;48.930;9.526;2022-08-11T09:22:37;26.30;73.60
18805;DHT22;9530;48.930;9.526;2022-08-11T09:25:26;26.40;73.60
18805;DHT22;9530;48.930;9.526;2022-08-11T09:28:14;26.70;74.80
18805;DHT22;9530;48.930;9.526;2022-08-11T09:30:41;26.90;72.90
18805;DHT22;9530;48.930;9.526;2022-08-11T09:33:10;27.00;72.50
18805;DHT22;9530;48.930;9.526;2022-08-11T09:35:37;27.10;71.50
18805;DHT22;9530;48.930;9.526;2022-08-11T09:38:10;27.30;70.70
18805;DHT22;9530;48.930;9.526;2022-08-11T09:40:55;27.30;69.40
18805;DHT22;9530;48.930;9.526;2022-08-11T09:43:24;26.90;71.30
18805;DHT22;9530;48.930;9.526;2022-08-11T09:46:14;27.00;70.40
18805;DHT22;9530;48.930;9.526;2022-08-11T09:48:43;27.20;70.10
18805;DHT22;9530;48.930;9.526;2022-08-11T09:51:11;27.50;71.70
18805;DHT22;9530;48.930;9.526;2022-08-11T09:53:39;27.70;68.70
18805;DHT22;9530;48.930;9.526;2022-08-11T09:56:10;27.80;69.80
18805;DHT22;9530;48.930;9.526;2022-08-11T09:59:00;27.80;68.00
18805;DHT22;9530;48.930;9.526;2022-08-11T10:01:37;27.90;68.60
18805;DHT22;9530;48.930;9.526;2022-08-11T10:04:10;28.10;66.00
18805;DHT22;9530;48.930;9.526;2022-08-11T10:06:40;28.30;65.60
18805;DHT22;9530;48.930;9.526;2022-08-11T10:09:25;28.30;66.00
18805;DHT22;9530;48.930;9.526;2022-08-11T10:11:55;28.30;68.00
18805;DHT22;9530;48.930;9.526;2022-08-11T10:14:24;28.40;68.90
18805;DHT22;9530;48.930;9.526;2022-08-11T10:17:09;28.50;66.60
18805;DHT22;9530;48.930;9.526;2022-08-11T10:19:37;28.50;65.30
18805;DHT22;9530;48.930;9.526;2022-08-11T10:22:04;28.40;65.70
18805;DHT22;9530;48.930;9.526;2022-08-11T10:24:49;28.40;66.30
18805;DHT22;9530;48.930;9.526;2022-08-11T10:27:34;28.70;66.10
18805;DHT22;9530;48.930;9.526;2022-08-11T10:30:03;28.50;63.10
18805;DHT22;9530;48.930;9.526;2022-08-11T10:32:49;28.50;62.10
18805;DHT22;9530;48.930;9.526;2022-08-11T10:35:34;28.50;63.50
18805;DHT22;9530;48.930;9.526;2022-08-11T10:38:03;28.40;63.20
18805;DHT22;9530;48.930;9.526;2022-08-11T10:40:30;28.10;63.00
18805;DHT22;9530;48.930;9.526;2022-08-11T10:42:59;28.10;63.30
18805;DHT22;9530;48.930;9.526;2022-08-11T10:45:33;28.00;65.70
18805;DHT22;9530;48.930;9.526;2022-08-11T10:48:19;28.20;64.90
18805;DHT22;9530;48.930;9.526;2022-08-11T10:50:47;28.30;63.40
18805;DHT22;9530;48.930;9.526;2022-08-11T10:53:32;28.50;64.50
18805;DHT22;9530;48.930;9.526;2022-08-11T10:56:17;28.70;63.00
18805;DHT22;9530;48.930;9.526;2022-08-11T10:59:03;28.70;61.10
18805;DHT22;9530;48.930;9.526;2022-08-11T11:01:37;28.40;63.00
18805;DHT22;9530;48.930;9.526;2022-08-11T11:04:07;28.60;64.20
18805;DHT22;9530;48.930;9.526;2022-08-11T11:06:43;28.60;63.30
18805;DHT22;9530;48.930;9.526;2022-08-11T11:09:14;28.60;63.20
18805;DHT22;9530;48.930;9.526;2022-08-11T11:11:52;28.60;63.80
18805;DHT22;9530;48.930;9.526;2022-08-11T11:14:40;28.80;62.80
18805;DHT22;9530;48.930;9.526;2022-08-11T11:17:29;28.90;63.00
18805;DHT22;9530;48.930;9.526;2022-08-11T11:20:17;28.80;62.90
18805;DHT22;9530;48.930;9.526;2022-08-11T11:22:49;28.90;59.70
18805;DHT22;9530;48.930;9.526;2022-08-11T11:25:24;29.00;61.40
18805;DHT22;9530;48.930;9.526;2022-08-11T11:28:27;29.10;60.70
18805;DHT22;9530;48.930;9.526;2022-08-11T11:31:09;29.10;60.10
18805;DHT22;9530;48.930;9.526;2022-08-11T11:33:57;29.30;58.50
18805;DHT22;9530;48.930;9.526;2022-08-11T11:36:30;29.00;58.20
18805;DHT22;9530;48.930;9.526;2022-08-11T11:39:02;29.00;58.30
18805;DHT22;9530;48.930;9.526;2022-08-11T11:41:29;29.00;59.80
18805;DHT22;9530;48.930;9.526;2022-08-11T11:43:57;29.10;59.10
18805;DHT22;9530;48.930;9.526;2022-08-11T11:46:26;29.20;59.20
18805;DHT22;9530;48.930;9.526;2022-08-11T11:48:55;29.30;58.40
18805;DHT22;9530;48.930;9.526;2022-08-11T11:51:22;29.30;58.70
18805;DHT22;9530;48.930;9.526;2022-08-11T11:53:50;29.20;58.80
18805;DHT22;9530;48.930;9.526;2022-08-11T11:56:18;29.30;59.20
18805;DHT22;9530;48.930;9.526;2022-08-11T11:58:46;29.50;59.00
18805;DHT22;9530;48.930;9.526;2022-08-11T12:01:31;29.50;57.80
18805;DHT22;9530;48.930;9.526;2022-08-11T12:04:00;29.40;57.50
18805;DHT22;9530;48.930;9.526;2022-08-11T12:06:30;29.20;56.60
18805;DHT22;9530;48.930;9.526;2022-08-11T12:08:58;29.10;57.30
18805;DHT22;9530;48.930;9.526;2022-08-11T12:11:27;29.10;57.30
18805;DHT22;9530;48.930;9.526;2022-08-11T12:14:11;29.20;57.60
18805;DHT22;9530;48.930;9.526;2022-08-11T12:16:43;29.40;58.20
18805;DHT22;9530;48.930;9.526;2022-08-11T12:19:13;29.70;57.40
18805;DHT22;9530;48.930;9.526;2022-08-11T12:21:41;29.70;56.30
18805;DHT22;9530;48.930;9.526;2022-08-11T12:24:30;29.90;56.00
18805;DHT22;9530;48.930;9.526;2022-08-11T12:27:15;30.00;55.80
18805;DHT22;9530;48.930;9.526;2022-08-11T12:29:50;30.00;55.00
18805;DHT22;9530;48.930;9.526;2022-08-11T12:32:18;29.90;55.20
18805;DHT22;9530;48.930;9.526;2022-08-11T12:34:46;30.00;55.20
18805;DHT22;9530;48.930;9.526;2022-08-11T12:37:15;29.90;56.70
18805;DHT22;9530;48.930;9.526;2022-08-11T12:39:47;29.80;54.60
18805;DHT22;9530;48.930;9.526;2022-08-11T12:42:33;29.80;55.00
18805;DHT22;9530;48.930;9.526;2022-08-11T12:45:23;29.90;55.70
18805;DHT22;9530;48.930;9.526;2022-08-11T12:47:59;30.10;54.90
18805;DHT22;9530;48.930;9.526;2022-08-11T12:50:49;30.20;55.20
18805;DHT22;9530;48.930;9.526;2022-08-11T12:53:36;30.30;54.40
18805;DHT22;9530;48.930;9.526;2022-08-11T12:56:07;30.40;54.70
18805;DHT22;9530;48.930;9.526;2022-08-11T12:58:52;30.40;53.10
18805;DHT22;9530;48.930;9.526;2022-08-11T13:01:33;30.50;54.70
18805;DHT22;9530;48.930;9.526;2022-08-11T13:04:17;30.80;54.20
18805;DHT22;9530;48.930;9.526;2022-08-11T13:07:03;30.90;54.30
18805;DHT22;9530;48.930;9.526;2022-08-11T13:09:30;30.90;53.40
18805;DHT22;9530;48.930;9.526;2022-08-11T13:11:57;31.00;53.30
18805;DHT22;9530;48.930;9.526;2022-08-11T13:14:41;30.90;53.00
18805;DHT22;9530;48.930;9.526;2022-08-11T13:17:08;30.80;52.30
18805;DHT22;9530;48.930;9.526;2022-08-11T13:19:47;31.00;53.70
18805;DHT22;9530;48.930;9.526;2022-08-11T13:22:16;31.00;52.10
18805;DHT22;9530;48.930;9.526;2022-08-11T13:24:45;31.00;53.30
18805;DHT22;9530;48.930;9.526;2022-08-11T13:27:15;31.10;52.10
18805;DHT22;9530;48.930;9.526;2022-08-11T13:29:43;31.10;52.30
18805;DHT22;9530;48.930;9.526;2022-08-11T13:32:12;31.10;52.40
18805;DHT22;9530;48.930;9.526;2022-08-11T13:34:40;31.20;51.60
18805;DHT22;9530;48.930;9.526;2022-08-11T13:37:09;31.10;51.80
18805;DHT22;9530;48.930;9.526;2022-08-11T13:39:42;31.30;52.20
18805;DHT22;9530;48.930;9.526;2022-08-11T13:42:13;31.30;51.30
18805;DHT22;9530;48.930;9.526;2022-08-11T13:44:41;31.30;52.20
18805;DHT22;9530;48.930;9.526;2022-08-11T13:47:12;31.40;51.20
18805;DHT22;9530;48.930;9.526;2022-08-11T13:49:39;31.50;50.70
18805;DHT22;9530;48.930;9.526;2022-08-11T13:52:11;31.60;51.90
18805;DHT22;9530;48.930;9.526;2022-08-11T13:54:41;31.40;50.70
18805;DHT22;9530;48.930;9.526;2022-08-11T13:57:10;31.20;50.30
18805;DHT22;9530;48.930;9.526;2022-08-11T13:59:39;31.00;50.30
18805;DHT22;9530;48.930;9.526;2022-08-11T14:02:12;30.90;51.40
18805;DHT22;9530;48.930;9.526;2022-08-11T14:04:42;31.10;51.90
18805;DHT22;9530;48.930;9.526;2022-08-11T14:07:10;31.20;51.90
18805;DHT22;9530;48.930;9.526;2022-08-11T14:09:42;31.50;51.70
18805;DHT22;9530;48.930;9.526;2022-08-11T14:12:13;31.50;50.70
18805;DHT22;9530;48.930;9.526;2022-08-11T14:15:00;31.30;50.20
18805;DHT22;9530;48.930;9.526;2022-08-11T14:17:30;31.10;50.70
18805;DHT22;9530;48.930;9.526;2022-08-11T14:20:03;31.20;51.40
18805;DHT22;9530;48.930;9.526;2022-08-11T14:22:31;31.20;51.30
18805;DHT22;9530;48.930;9.526;2022-08-11T14:24:58;31.30;51.30
18805;DHT22;9530;48.930;9.526;2022-08-11T14:27:25;31.30;49.90
18805;DHT22;9530;48.930;9.526;2022-08-11T14:29:55;31.00;50.20
18805;DHT22;9530;48.930;9.526;2022-08-11T14:32:23;31.10;51.10
18805;DHT22;9530;48.930;9.526;2022-08-11T14:34:50;31.00;49.50
18805;DHT22;9530;48.930;9.526;2022-08-11T14:37:19;31.00;49.80
18805;DHT22;9530;48.930;9.526;2022-08-11T14:39:48;30.90;50.20
18805;DHT22;9530;48.930;9.526;2022-08-11T14:42:19;31.20;50.10
18805;DHT22;9530;48.930;9.526;2022-08-11T14:45:05;31.50;49.70
18805;DHT22;9530;48.930;9.526;2022-08-11T14:48:04;31.80;48.90
18805;DHT22;9530;48.930;9.526;2022-08-11T14:50:34;32.00;49.10
18805;DHT22;9530;48.930;9.526;2022-08-11T14:53:05;32.00;48.10
18805;DHT22;9530;48.930;9.526;2022-08-11T14:55:35;31.80;48.40
18805;DHT22;9530;48.930;9.526;2022-08-11T14:58:23;31.80;48.40
18805;DHT22;9530;48.930;9.526;2022-08-11T15:00:51;31.60;48.10
18805;DHT22;9530;48.930;9.526;2022-08-11T15:03:20;31.80;49.60
18805;DHT22;9530;48.930;9.526;2022-08-11T15:05:48;31.90;48.70
18805;DHT22;9530;48.930;9.526;2022-08-11T15:08:16;32.00;48.10
18805;DHT22;9530;48.930;9.526;2022-08-11T15:10:44;31.90;48.40
18805;DHT22;9530;48.930;9.526;2022-08-11T15:13:14;31.90;48.30
18805;DHT22;9530;48.930;9.526;2022-08-11T15:15:44;31.90;48.50
18805;DHT22;9530;48.930;9.526;2022-08-11T15:18:30;31.80;48.50
18805;DHT22;9530;48.930;9.526;2022-08-11T15:20:57;31.80;48.20
18805;DHT22;9530;48.930;9.526;2022-08-11T15:23:43;31.70;49.70
18805;DHT22;9530;48.930;9.526;2022-08-11T15:26:39;31.80;49.20
18805;DHT22;9530;48.930;9.526;2022-08-11T15:29:28;32.00;47.40
18805;DHT22;9530;48.930;9.526;2022-08-11T15:32:15;32.90;47.60
18805;DHT22;9530;48.930;9.526;2022-08-11T15:35:02;34.50;45.70
18805;DHT22;9530;48.930;9.526;2022-08-11T15:37:52;36.20;42.80
18805;DHT22;9530;48.930;9.526;2022-08-11T15:40:23;37.70;41.20
18805;DHT22;9530;48.930;9.526;2022-08-11T15:43:12;38.50;40.80
18805;DHT22;9530;48.930;9.526;2022-08-11T15:46:02;38.90;40.00
18805;DHT22;9530;48.930;9.526;2022-08-11T15:48:40;38.40;39.30
18805;DHT22;9530;48.930;9.526;2022-08-11T15:51:10;38.50;39.50
18805;DHT22;9530;48.930;9.526;2022-08-11T15:53:44;39.20;39.30
18805;DHT22;9530;48.930;9.526;2022-08-11T15:56:14;39.00;38.40
18805;DHT22;9530;48.930;9.526;2022-08-11T15:58:45;39.10;38.00
18805;DHT22;9530;48.930;9.526;2022-08-11T16:01:30;39.20;38.30
18805;DHT22;9530;48.930;9.526;2022-08-11T16:04:19;39.10;38.70
18805;DHT22;9530;48.930;9.526;2022-08-11T16:06:51;39.30;37.70
18805;DHT22;9530;48.930;9.526;2022-08-11T16:09:26;39.50;38.20
18805;DHT22;9530;48.930;9.526;2022-08-11T16:11:56;39.20;37.50
18805;DHT22;9530;48.930;9.526;2022-08-11T16:14:24;39.60;37.50
18805;DHT22;9530;48.930;9.526;2022-08-11T16:17:10;39.10;37.80
18805;DHT22;9530;48.930;9.526;2022-08-11T16:19:40;38.40;38.30
18805;DHT22;9530;48.930;9.526;2022-08-11T16:22:09;38.50;39.10
18805;DHT22;9530;48.930;9.526;2022-08-11T16:24:40;38.30;38.20
18805;DHT22;9530;48.930;9.526;2022-08-11T16:27:10;38.30;38.90
18805;DHT22;9530;48.930;9.526;2022-08-11T16:29:41;38.80;38.30
18805;DHT22;9530;48.930;9.526;2022-08-11T16:32:10;39.20;38.20
18805;DHT22;9530;48.930;9.526;2022-08-11T16:34:48;38.90;38.10
18805;DHT22;9530;48.930;9.526;2022-08-11T16:37:34;39.00;37.10
18805;DHT22;9530;48.930;9.526;2022-08-11T16:40:20;39.20;37.00
18805;DHT22;9530;48.930;9.526;2022-08-11T16:42:49;39.10;37.50
18805;DHT22;9530;48.930;9.526;2022-08-11T16:45:35;39.00;37.00
18805;DHT22;9530;48.930;9.526;2022-08-11T16:48:22;39.70;35.80
18805;DHT22;9530;48.930;9.526;2022-08-11T16:50:53;39.40;36.60
18805;DHT22;9530;48.930;9.526;2022-08-11T16:53:20;39.40;36.00
18805;DHT22;9530;48.930;9.526;2022-08-11T16:55:48;38.50;36.30
18805;DHT22;9530;48.930;9.526;2022-08-11T16:58:17;36.60;38.20
18805;DHT22;9530;48.930;9.526;2022-08-11T17:01:03;34.90;40.10
18805;DHT22;9530;48.930;9.526;2022-08-11T17:03:30;33.40;41.50
18805;DHT22;9530;48.930;9.526;2022-08-11T17:06:19;32.30;42.60
18805;DHT22;9530;48.930;9.526;2022-08-11T17:09:03;31.60;44.50
18805;DHT22;9530;48.930;9.526;2022-08-11T17:11:51;30.70;44.30
18805;DHT22;9530;48.930;9.526;2022-08-11T17:14:41;30.40;45.40
18805;DHT22;9530;48.930;9.526;2022-08-11T17:17:12;30.00;46.30
18805;DHT22;9530;48.930;9.526;2022-08-11T17:19:45;29.70;46.80
18805;DHT22;9530;48.930;9.526;2022-08-11T17:22:15;29.60;46.70
18805;DHT22;9530;48.930;9.526;2022-08-11T17:25:02;29.40;47.00
18805;DHT22;9530;48.930;9.526;2022-08-11T17:27:31;29.00;47.10
18805;DHT22;9530;48.930;9.526;2022-08-11T17:30:02;28.90;47.70
18805;DHT22;9530;48.930;9.526;2022-08-11T17:32:32;28.90;48.50
18805;DHT22;9530;48.930;9.526;2022-08-11T17:35:20;28.80;49.20
18805;DHT22;9530;48.930;9.526;2022-08-11T17:38:00;28.70;48.90